Time;durP1;ratioP1;P1;durP2;ratioP2;P2;SDS_P1;SDS_P2;PMS_P1;PMS_P2;Temp;Humidity;BMP_temperature;BMP_pressure;BME280_temperature;BME280_humidity;BME280_pressure;Samples;Min_cycle;Max_cycle;Signal;HPM_P1;HPM_P2
2023/05/20 00:01:01;;;;;;;17.00;5.45;;;10.70;99.90;;;;;;5137134;27;20438;-71
2023/05/20 00:03:28;;;;;;;12.90;5.38;;;10.70;99.90;;;;;;5136439;27;20039;-71
2023/05/20 00:05:54;;;;;;;14.60;5.47;;;10.70;99.90;;;;;;5118761;27;20043;-72
2023/05/20 00:08:20;;;;;;;15.85;5.80;;;10.60;99.90;;;;;;5137183;27;20120;-71
2023/05/20 00:10:45;;;;;;;19.85;6.28;;;10.80;99.90;;;;;;5136386;27;20043;-70
2023/05/20 00:13:11;;;;;;;16.08;5.30;;;10.80;99.90;;;;;;5118458;27;20043;-72
2023/05/20 00:15:37;;;;;;;14.30;5.40;;;10.80;99.90;;;;;;5136326;27;20057;-71
2023/05/20 00:18:03;;;;;;;18.50;6.43;;;10.80;99.90;;;;;;5118947;27;20069;-71
2023/05/20 00:20:29;;;;;;;17.80;5.80;;;10.80;99.90;;;;;;5117887;27;20039;-73
2023/05/20 00:22:55;;;;;;;16.07;5.97;;;10.80;99.90;;;;;;5137041;27;20050;-72
2023/05/20 00:25:21;;;;;;;15.27;5.32;;;10.70;99.90;;;;;;5118046;27;20345;-72
2023/05/20 00:27:47;;;;;;;14.23;6.20;;;10.70;99.90;;;;;;5117820;27;20043;-72
2023/05/20 00:30:12;;;;;;;15.85;5.07;;;10.70;99.90;;;;;;5101731;27;20043;-71
2023/05/20 00:32:38;;;;;;;16.15;5.05;;;10.70;99.90;;;;;;5135990;27;20078;-70
2023/05/20 00:35:05;;;;;;;13.82;5.68;;;10.70;99.90;;;;;;5117803;27;20130;-70
2023/05/20 00:37:30;;;;;;;15.73;5.23;;;10.70;99.90;;;;;;5117703;27;20039;-70
2023/05/20 00:39:56;;;;;;;14.48;5.55;;;10.70;99.90;;;;;;5117744;27;20046;-71
2023/05/20 00:42:23;;;;;;;19.38;5.93;;;10.70;99.90;;;;;;5118236;27;20389;-72
2023/05/20 00:44:49;;;;;;;;;;;10.70;99.90;;;;;;5136826;27;20130;-73
2023/05/20 00:47:17;;;;;;;17.67;5.80;;;10.70;99.90;;;;;;5135687;27;20477;-70
2023/05/20 00:49:44;;;;;;;19.08;5.95;;;10.60;99.90;;;;;;5135612;27;20039;-71
2023/05/20 00:52:10;;;;;;;;;;;10.60;99.90;;;;;;5101321;27;20051;-70
2023/05/20 00:54:36;;;;;;;16.05;5.63;;;10.60;99.90;;;;;;5117165;27;20060;-70
2023/05/20 00:57:04;;;;;;;15.75;5.68;;;10.70;99.90;;;;;;5084291;27;20084;-71
2023/05/20 00:59:30;;;;;;;17.52;5.90;;;10.70;99.90;;;;;;5135352;27;20043;-72
2023/05/20 01:01:56;;;;;;;16.25;6.57;;;10.70;99.90;;;;;;5118796;27;20047;-71
2023/05/20 01:04:22;;;;;;;17.63;5.83;;;10.80;99.90;;;;;;5121134;27;20146;-71
2023/05/20 01:06:48;;;;;;;16.40;5.40;;;10.80;99.90;;;;;;5135331;27;20095;-70
2023/05/20 01:09:14;;;;;;;20.03;6.17;;;10.80;99.90;;;;;;5117341;27;20047;-78
2023/05/20 01:12:03;;;;;;;13.70;5.97;;;10.80;99.90;;;;;;5135322;27;20047;-72
2023/05/20 01:14:34;;;;;;;21.17;6.70;;;10.80;99.90;;;;;;5084021;27;20074;-72
2023/05/20 01:17:08;;;;;;;15.30;5.63;;;10.80;99.90;;;;;;5117750;27;20126;-70
2023/05/20 01:19:44;;;;;;;16.98;5.95;;;10.80;99.90;;;;;;5117317;27;20551;-72
2023/05/20 01:22:11;;;;;;;23.67;7.45;;;10.90;99.90;;;;;;5117515;27;20054;-72
2023/05/20 01:24:47;;;;;;;17.48;6.40;;;10.90;99.90;;;;;;5117104;27;20074;-71
2023/05/20 01:27:13;;;;;;;21.80;7.72;;;10.90;99.90;;;;;;5116634;27;20055;-69
2023/05/20 01:29:47;;;;;;;17.95;6.25;;;10.90;99.90;;;;;;5117233;27;20054;-72
2023/05/20 01:32:30;;;;;;;26.02;6.85;;;10.90;99.90;;;;;;5100469;27;20498;-72
2023/05/20 01:34:58;;;;;;;15.32;5.88;;;10.90;99.90;;;;;;5100091;27;20086;-73
2023/05/20 01:37:24;;;;;;;19.33;6.30;;;10.90;99.90;;;;;;5135260;27;20399;-72
2023/05/20 01:39:53;;;;;;;17.17;6.47;;;10.90;99.90;;;;;;5134749;27;20043;-72
2023/05/20 01:42:19;;;;;;;18.33;6.90;;;10.90;99.90;;;;;;5134729;27;20126;-79
2023/05/20 01:44:45;;;;;;;12.95;5.90;;;10.90;99.90;;;;;;5134910;27;20135;-70
2023/05/20 01:47:11;;;;;;;14.55;5.55;;;10.90;99.90;;;;;;5116141;27;20095;-72
2023/05/20 01:49:37;;;;;;;17.45;6.57;;;10.90;99.90;;;;;;5099268;27;20043;-70
2023/05/20 01:52:03;;;;;;;14.90;5.60;;;10.90;99.90;;;;;;5135414;27;20354;-71
2023/05/20 01:54:29;;;;;;;19.27;6.63;;;10.90;99.90;;;;;;5134663;27;20051;-71
2023/05/20 01:56:55;;;;;;;21.77;6.60;;;10.80;99.90;;;;;;5116303;27;20503;-71
2023/05/20 01:59:21;;;;;;;18.63;5.95;;;10.90;99.90;;;;;;5116358;28;20399;-79
2023/05/20 02:01:46;;;;;;;12.95;5.40;;;10.80;99.90;;;;;;5117170;27;20039;-71
2023/05/20 02:04:12;;;;;;;20.52;6.68;;;10.80;99.90;;;;;;5134577;27;20047;-74
2023/05/20 02:06:38;;;;;;;13.70;5.32;;;10.80;99.90;;;;;;5135338;27;20039;-71
2023/05/20 02:09:04;;;;;;;16.67;5.88;;;10.90;99.90;;;;;;5134513;27;20039;-71
2023/05/20 02:11:30;;;;;;;14.80;5.60;;;10.90;99.90;;;;;;5135058;28;20050;-71
2023/05/20 02:13:56;;;;;;;19.08;5.82;;;10.90;99.90;;;;;;5099650;28;20047;-72
2023/05/20 02:16:22;;;;;;;16.42;5.70;;;10.90;99.90;;;;;;5102696;28;20047;-71
2023/05/20 02:18:50;;;;;;;18.10;5.47;;;10.90;99.90;;;;;;5126161;27;20043;-71
2023/05/20 02:21:16;;;;;;;14.10;6.07;;;10.90;99.90;;;;;;5140219;27;20050;-70
2023/05/20 02:23:41;;;;;;;20.85;5.55;;;11.00;99.90;;;;;;5121116;27;20039;-72
2023/05/20 02:26:07;;;;;;;17.15;5.45;;;11.00;99.90;;;;;;5086491;27;20047;-72
2023/05/20 02:28:33;;;;;;;17.48;5.47;;;11.00;99.90;;;;;;5103384;27;20086;-73
2023/05/20 02:30:58;;;;;;;15.80;5.95;;;11.00;99.90;;;;;;5120442;27;20039;-72
2023/05/20 02:33:27;;;;;;;16.98;5.65;;;11.00;99.90;;;;;;5103856;27;20055;-72
2023/05/20 02:35:53;;;;;;;13.27;4.78;;;10.90;99.90;;;;;;5138562;27;20396;-71
2023/05/20 02:38:19;;;;;;;20.73;6.00;;;10.90;99.90;;;;;;5103339;27;20039;-72
2023/05/20 02:40:45;;;;;;;13.18;5.55;;;10.90;99.90;;;;;;5138397;27;20047;-73
2023/05/20 02:43:10;;;;;;;16.98;5.95;;;10.90;99.90;;;;;;5103915;27;20050;-71
2023/05/20 02:45:36;;;;;;;15.65;6.57;;;10.90;99.90;;;;;;5138470;27;20039;-71
2023/05/20 02:48:02;;;;;;;12.82;4.65;;;11.00;99.90;;;;;;5120400;27;20487;-72
2023/05/20 02:50:28;;;;;;;16.55;5.70;;;11.00;99.90;;;;;;5119600;27;20050;-73
2023/05/20 02:52:53;;;;;;;14.40;5.30;;;11.00;99.90;;;;;;5120353;27;20059;-71
2023/05/20 02:55:20;;;;;;;14.60;5.53;;;11.00;99.90;;;;;;5137687;27;20060;-73
2023/05/20 02:57:45;;;;;;;17.63;6.60;;;10.90;99.90;;;;;;5138027;27;20491;-71
2023/05/20 03:00:15;;;;;;;11.85;5.07;;;10.90;99.90;;;;;;5102702;27;20122;-73
2023/05/20 03:02:41;;;;;;;11.15;5.32;;;10.90;99.90;;;;;;5138702;27;20389;-71
2023/05/20 03:05:07;;;;;;;17.67;5.57;;;10.90;99.90;;;;;;5102863;27;20051;-71
2023/05/20 03:07:35;;;;;;;17.17;5.65;;;10.80;99.90;;;;;;5102877;27;20078;-72
2023/05/20 03:10:01;;;;;;;17.67;6.63;;;10.80;99.90;;;;;;5137834;27;20115;-71
2023/05/20 03:12:29;;;;;;;15.65;5.68;;;10.80;99.90;;;;;;5119529;27;20134;-71
2023/05/20 03:14:55;;;;;;;13.48;5.35;;;10.80;99.90;;;;;;5137586;27;20101;-71
2023/05/20 03:17:21;;;;;;;17.17;5.85;;;10.80;99.90;;;;;;5137635;27;20539;-72
2023/05/20 03:19:46;;;;;;;11.80;5.25;;;10.70;99.90;;;;;;5137352;27;20053;-71
2023/05/20 03:22:12;;;;;;;15.45;6.20;;;10.70;99.90;;;;;;5137262;27;20118;-71
2023/05/20 03:24:39;;;;;;;14.88;5.20;;;10.70;99.90;;;;;;5137990;27;20100;-70
2023/05/20 03:27:05;;;;;;;14.23;5.55;;;10.70;99.90;;;;;;5137543;27;20055;-70
2023/05/20 03:29:32;;;;;;;16.50;5.73;;;10.70;99.90;;;;;;5137878;27;20101;-71
2023/05/20 03:31:58;;;;;;;14.30;5.50;;;10.70;99.90;;;;;;5140664;27;20043;-71
2023/05/20 03:34:23;;;;;;;12.80;4.82;;;10.70;99.90;;;;;;5091991;27;20491;-70
2023/05/20 03:36:50;;;;;;;15.30;4.82;;;10.70;99.90;;;;;;5137983;27;20066;-72
2023/05/20 03:39:16;;;;;;;12.43;4.80;;;10.70;99.90;;;;;;5137283;27;20043;-71
2023/05/20 03:41:42;;;;;;;13.50;5.50;;;10.70;99.90;;;;;;5101955;27;20042;-71
2023/05/20 03:44:07;;;;;;;12.60;6.03;;;10.60;99.90;;;;;;5118950;27;20047;-72
2023/05/20 03:46:33;;;;;;;12.40;5.47;;;10.50;99.90;;;;;;5119836;27;20050;-72
2023/05/20 03:49:00;;;;;;;15.35;6.03;;;10.50;99.90;;;;;;5136970;27;20050;-70
2023/05/20 03:51:26;;;;;;;17.02;5.20;;;10.40;99.90;;;;;;5119237;27;20491;-71
2023/05/20 03:53:52;;;;;;;11.93;4.72;;;10.40;99.90;;;;;;5118323;27;20511;-71
2023/05/20 03:56:18;;;;;;;14.48;5.80;;;10.40;99.90;;;;;;5118428;27;20043;-70
2023/05/20 03:58:44;;;;;;;15.38;5.10;;;10.40;99.90;;;;;;5136661;27;20047;-71
2023/05/20 04:01:13;;;;;;;11.82;5.13;;;10.40;99.90;;;;;;5119506;27;20462;-69
2023/05/20 04:03:40;;;;;;;14.48;5.20;;;10.40;99.90;;;;;;5102052;27;20540;-72
2023/05/20 04:06:06;;;;;;;17.55;5.50;;;10.50;99.90;;;;;;5136746;27;20039;-71
2023/05/20 04:08:35;;;;;;;15.40;4.72;;;10.50;99.90;;;;;;5118396;27;20045;-70
2023/05/20 04:11:01;;;;;;;16.25;5.20;;;10.60;99.90;;;;;;5101640;27;20035;-74
2023/05/20 04:13:27;;;;;;;19.38;5.63;;;10.70;99.90;;;;;;5136574;27;20252;-71
2023/05/20 04:15:54;;;;;;;16.05;5.55;;;10.70;99.90;;;;;;5118359;27;20101;-71
2023/05/20 04:18:19;;;;;;;13.03;4.90;;;10.70;99.90;;;;;;5118249;27;20047;-71
2023/05/20 04:20:45;;;;;;;14.15;4.95;;;10.70;99.90;;;;;;5136260;27;20039;-71
2023/05/20 04:23:11;;;;;;;13.32;4.78;;;10.70;99.90;;;;;;5101133;27;20104;-71
2023/05/20 04:25:37;;;;;;;14.13;5.22;;;10.70;99.90;;;;;;5136920;27;20051;-73
2023/05/20 04:28:03;;;;;;;11.55;4.50;;;10.70;99.90;;;;;;5117920;27;20054;-71
2023/05/20 04:30:32;;;;;;;12.35;4.72;;;10.70;99.90;;;;;;5136308;27;20050;-72
2023/05/20 04:32:58;;;;;;;13.90;5.80;;;10.70;99.90;;;;;;5085406;27;20043;-71
2023/05/20 04:35:24;;;;;;;14.68;5.28;;;10.70;99.90;;;;;;5101329;27;20054;-71
2023/05/20 04:37:52;;;;;;;12.35;4.95;;;10.70;99.90;;;;;;5136072;27;20104;-71
2023/05/20 04:40:19;;;;;;;17.00;4.75;;;10.70;99.90;;;;;;5117413;27;20104;-74
2023/05/20 04:42:45;;;;;;;;;;;10.70;99.90;;;;;;5116802;27;20051;-71
2023/05/20 04:45:12;;;;;;;9.27;4.03;;;10.70;99.90;;;;;;5117674;27;19941;-72
2023/05/20 04:47:38;;;;;;;13.10;4.60;;;10.70;99.90;;;;;;5124184;27;20050;-71
2023/05/20 04:50:09;;;;;;;11.00;4.77;;;10.70;99.90;;;;;;5129692;27;20134;-71
2023/05/20 04:52:40;;;;;;;14.30;4.70;;;10.80;99.90;;;;;;5117948;27;20400;-72
2023/05/20 04:55:10;;;;;;;9.40;3.78;;;10.80;99.90;;;;;;5136525;27;20370;-71
2023/05/20 04:57:39;;;;;;;13.00;3.88;;;10.80;99.90;;;;;;5100639;27;20106;-72
2023/05/20 05:00:06;;;;;;;11.20;4.93;;;10.90;99.90;;;;;;5100374;27;20043;-72
2023/05/20 05:02:33;;;;;;;10.20;4.10;;;10.90;99.90;;;;;;5100806;27;20055;-71
2023/05/20 05:04:59;;;;;;;9.07;4.07;;;11.00;99.90;;;;;;5100542;27;20046;-71
2023/05/20 05:07:27;;;;;;;13.70;3.90;;;11.10;99.90;;;;;;5100541;27;20404;-72
2023/05/20 05:09:53;;;;;;;9.15;3.83;;;11.10;99.90;;;;;;5117734;27;20076;-72
2023/05/20 05:12:19;;;;;;;9.10;3.63;;;11.10;99.90;;;;;;5100453;27;20133;-72
2023/05/20 05:14:45;;;;;;;10.18;3.40;;;11.20;99.90;;;;;;5117025;27;20053;-71
2023/05/20 05:17:11;;;;;;;12.68;3.15;;;11.20;99.90;;;;;;5135137;27;20544;-70
2023/05/20 05:19:37;;;;;;;12.63;3.60;;;11.20;99.90;;;;;;5082751;27;20039;-72
2023/05/20 05:22:03;;;;;;;10.40;3.63;;;11.30;99.90;;;;;;5116755;27;20043;-71
2023/05/20 05:24:29;;;;;;;8.70;2.90;;;11.40;99.90;;;;;;5135221;27;20122;-70
2023/05/20 05:26:55;;;;;;;7.72;3.15;;;11.40;99.90;;;;;;5116798;27;20395;-72
2023/05/20 05:29:24;;;;;;;9.15;2.80;;;11.50;99.90;;;;;;5134888;27;20039;-73
2023/05/20 05:31:49;;;;;;;7.85;3.30;;;11.50;99.90;;;;;;5083130;27;20511;-73
2023/05/20 05:34:18;;;;;;;9.25;3.17;;;11.60;99.90;;;;;;5100052;27;20111;-72
2023/05/20 05:36:47;;;;;;;8.95;3.00;;;11.70;99.90;;;;;;5083084;27;20050;-71
2023/05/20 05:39:13;;;;;;;7.03;2.88;;;11.70;99.90;;;;;;5132654;27;20051;-71
2023/05/20 05:41:39;;;;;;;10.15;2.75;;;11.80;99.90;;;;;;5116684;27;20130;-71
2023/05/20 05:44:05;;;;;;;8.23;2.20;;;11.80;99.90;;;;;;5135020;27;20054;-70
2023/05/20 05:46:31;;;;;;;11.25;3.15;;;11.90;99.90;;;;;;5135394;27;20044;-72
2023/05/20 05:48:57;;;;;;;6.15;2.30;;;12.00;99.90;;;;;;5116446;27;20373;-71
2023/05/20 05:51:26;;;;;;;8.80;2.40;;;12.00;99.90;;;;;;5135023;27;20119;-71
2023/05/20 05:53:52;;;;;;;8.63;2.10;;;12.10;99.90;;;;;;5116739;28;20093;-70
2023/05/20 05:56:18;;;;;;;6.45;2.00;;;12.10;99.90;;;;;;5099125;27;20531;-70
2023/05/20 05:58:44;;;;;;;9.55;2.40;;;12.20;99.90;;;;;;5116424;27;20051;-70
2023/05/20 06:01:10;;;;;;;7.75;2.10;;;12.20;99.90;;;;;;5099564;28;20066;-70
2023/05/20 06:03:36;;;;;;;6.10;2.13;;;12.30;99.90;;;;;;5137093;27;20042;-70
2023/05/20 06:06:01;;;;;;;7.05;1.95;;;12.30;99.90;;;;;;5134768;27;20074;-71
2023/05/20 06:08:27;;;;;;;8.68;2.30;;;12.40;99.90;;;;;;5116217;28;20104;-70
2023/05/20 06:10:53;;;;;;;5.22;1.48;;;12.40;99.90;;;;;;5116145;28;20036;-79
2023/05/20 06:13:19;;;;;;;5.88;1.85;;;12.50;99.90;;;;;;5134705;27;20047;-69
2023/05/20 06:15:45;;;;;;;5.53;1.90;;;12.50;99.90;;;;;;5116821;28;20134;-70
2023/05/20 06:18:12;;;;;;;6.50;1.98;;;12.60;99.90;;;;;;5116637;28;20139;-69
2023/05/20 06:20:37;;;;;;;5.88;2.20;;;12.60;99.90;;;;;;5134556;28;20043;-70
2023/05/20 06:23:03;;;;;;;5.72;2.10;;;12.70;99.90;;;;;;5116193;28;20444;-71
2023/05/20 06:25:29;;;;;;;9.35;2.13;;;12.70;99.90;;;;;;5134742;28;20058;-70
2023/05/20 06:27:54;;;;;;;5.80;2.17;;;12.80;99.90;;;;;;5115967;28;20047;-71
2023/05/20 06:30:20;;;;;;;7.20;2.10;;;12.80;99.90;;;;;;5099260;28;20042;-71
2023/05/20 06:32:46;;;;;;;7.93;1.90;;;12.90;99.90;;;;;;5116117;28;20113;-70
2023/05/20 06:35:12;;;;;;;5.43;2.35;;;12.90;99.90;;;;;;5082451;28;20043;-71
2023/05/20 06:37:37;;;;;;;5.32;2.00;;;13.00;99.90;;;;;;5099227;28;20050;-74
2023/05/20 06:40:04;;;;;;;5.53;2.05;;;13.10;99.90;;;;;;5098923;28;20175;-69
2023/05/20 06:42:29;;;;;;;8.73;2.33;;;13.10;99.90;;;;;;5115553;28;20515;-70
2023/05/20 06:44:55;;;;;;;6.55;2.20;;;13.20;99.90;;;;;;5115926;28;20035;-71
2023/05/20 06:47:21;;;;;;;7.55;2.20;;;13.30;99.90;;;;;;5134061;28;20090;-72
2023/05/20 06:49:46;;;;;;;7.00;2.08;;;13.40;99.90;;;;;;5098914;28;20044;-69
2023/05/20 06:52:12;;;;;;;5.13;2.17;;;13.40;99.90;;;;;;5116162;28;20066;-71
2023/05/20 06:54:40;;;;;;;8.07;2.40;;;13.50;99.90;;;;;;5115836;28;20047;-71
2023/05/20 06:57:09;;;;;;;6.53;2.28;;;13.50;99.90;;;;;;5115752;28;20137;-72
2023/05/20 06:59:36;;;;;;;6.63;2.15;;;13.60;99.90;;;;;;5133942;28;20043;-72
2023/05/20 07:02:02;;;;;;;8.77;2.33;;;13.70;99.90;;;;;;5133897;28;20036;-73
2023/05/20 07:04:28;;;;;;;8.40;2.60;;;13.70;99.90;;;;;;5116578;27;20054;-70
2023/05/20 07:06:54;;;;;;;6.90;2.00;;;13.80;99.90;;;;;;5137407;27;20053;-70
2023/05/20 07:09:20;;;;;;;6.88;1.90;;;13.90;99.90;;;;;;5102588;27;20041;-71
2023/05/20 07:11:45;;;;;;;6.63;2.17;;;14.00;99.90;;;;;;5102911;27;20047;-71
2023/05/20 07:14:11;;;;;;;6.53;2.50;;;14.10;99.90;;;;;;5119539;27;20050;-73
2023/05/20 07:16:37;;;;;;;5.45;2.25;;;14.10;99.90;;;;;;5120854;27;20047;-69
2023/05/20 07:19:03;;;;;;;5.57;2.42;;;14.20;99.90;;;;;;5137620;27;20062;-79
2023/05/20 07:21:29;;;;;;;7.03;2.88;;;14.40;99.90;;;;;;5119443;27;20048;-69
2023/05/20 07:23:55;;;;;;;6.97;2.90;;;14.40;99.90;;;;;;5102377;27;20191;-71
2023/05/20 07:26:21;;;;;;;7.72;2.85;;;14.50;99.90;;;;;;5119994;27;20138;-70
2023/05/20 07:28:47;;;;;;;6.13;2.85;;;14.60;99.90;;;;;;5137652;27;20045;-71
2023/05/20 07:31:13;;;;;;;9.45;2.72;;;14.60;99.90;;;;;;5118995;27;20547;-71
2023/05/20 07:33:39;;;;;;;6.75;2.65;;;14.70;99.90;;;;;;5119551;27;20050;-70
2023/05/20 07:36:05;;;;;;;7.88;2.50;;;14.80;99.90;;;;;;5137147;27;20515;-78
2023/05/20 07:38:31;;;;;;;8.73;2.45;;;14.90;99.90;;;;;;5138101;27;20134;-70
2023/05/20 07:40:56;;;;;;;7.73;3.00;;;15.00;99.90;;;;;;5118878;27;20083;-71
2023/05/20 07:43:22;;;;;;;6.03;2.85;;;15.10;99.90;;;;;;5118976;27;20047;-71
2023/05/20 07:45:48;;;;;;;10.35;2.53;;;15.10;99.90;;;;;;5102435;27;20051;-73
2023/05/20 07:48:14;;;;;;;8.75;2.88;;;15.20;99.90;;;;;;5118543;27;20515;-70
2023/05/20 07:50:40;;;;;;;6.07;2.90;;;15.30;99.90;;;;;;5136873;27;20043;-71
2023/05/20 07:53:06;;;;;;;7.40;2.92;;;15.40;99.90;;;;;;5101111;27;20055;-69
2023/05/20 07:55:35;;;;;;;6.18;2.67;;;15.40;99.90;;;;;;5136900;27;20091;-69
2023/05/20 07:58:02;;;;;;;9.60;2.90;;;15.50;99.90;;;;;;5118331;27;20110;-70
2023/05/20 08:00:27;;;;;;;7.15;2.97;;;15.60;99.90;;;;;;5118322;27;20051;-72
2023/05/20 08:02:53;;;;;;;12.27;3.05;;;15.70;99.90;;;;;;5118399;27;20039;-70
2023/05/20 08:05:19;;;;;;;6.88;3.03;;;15.90;99.90;;;;;;5118428;27;20131;-71
2023/05/20 08:07:44;;;;;;;5.38;2.40;;;16.00;99.90;;;;;;5101617;27;20451;-72
2023/05/20 08:10:10;;;;;;;9.48;3.05;;;16.10;99.90;;;;;;5136438;27;20050;-71
2023/05/20 08:12:36;;;;;;;7.07;3.13;;;16.20;99.90;;;;;;5101499;27;20055;-71
2023/05/20 08:15:03;;;;;;;9.23;3.08;;;16.30;99.90;;;;;;5101279;27;20046;-71
2023/05/20 08:17:28;;;;;;;8.73;2.80;;;16.40;99.90;;;;;;5083952;27;20112;-70
2023/05/20 08:19:54;;;;;;;8.95;3.00;;;16.40;99.90;;;;;;5136339;27;20043;-70
2023/05/20 08:22:20;;;;;;;8.48;2.65;;;16.40;99.90;;;;;;5119147;27;20484;-73
2023/05/20 08:24:46;;;;;;;5.50;2.65;;;16.40;99.90;;;;;;5137800;27;20146;-71
2023/05/20 08:27:11;;;;;;;7.40;2.90;;;16.50;99.90;;;;;;5119068;27;20043;-80
2023/05/20 08:29:37;;;;;;;7.78;2.70;;;16.50;99.90;;;;;;5118119;27;20069;-69
2023/05/20 08:32:03;;;;;;;6.82;2.85;;;16.60;99.90;;;;;;5100725;27;20039;-70
2023/05/20 08:34:30;;;;;;;5.65;2.00;;;16.60;99.90;;;;;;5117691;27;20043;-72
2023/05/20 08:36:56;;;;;;;;;;;16.70;99.90;;;;;;5118348;27;20081;-69
2023/05/20 08:39:22;;;;;;;5.57;2.38;;;16.80;99.90;;;;;;5135918;27;20014;-70
2023/05/20 08:41:48;;;;;;;9.48;2.78;;;16.80;99.90;;;;;;5083774;27;20433;-71
2023/05/20 08:44:16;;;;;;;6.50;2.35;;;16.90;99.90;;;;;;5117583;27;20095;-74
2023/05/20 08:46:42;;;;;;;8.23;2.38;;;16.90;99.90;;;;;;5117365;27;20055;-70
2023/05/20 08:49:08;;;;;;;9.52;2.70;;;16.90;99.90;;;;;;5117530;27;20054;-71
2023/05/20 08:51:36;;;;;;;6.35;2.33;;;16.90;99.90;;;;;;5117338;27;20063;-69
2023/05/20 08:54:02;;;;;;;5.25;2.08;;;17.00;99.90;;;;;;5117331;27;20126;-70
2023/05/20 08:56:28;;;;;;;7.05;2.08;;;17.00;99.90;;;;;;5135998;27;20043;-70
2023/05/20 08:58:54;;;;;;;6.87;2.13;;;17.10;99.90;;;;;;5135475;27;20047;-71
2023/05/20 09:01:24;;;;;;;6.65;2.30;;;17.00;99.50;;;;;;5135462;27;20276;-71
2023/05/20 09:03:50;;;;;;;5.88;2.50;;;17.10;99.90;;;;;;5135446;27;20104;-70
2023/05/20 09:06:20;;;;;;;8.90;2.45;;;17.30;99.40;;;;;;5117949;27;20047;-69
2023/05/20 09:08:48;;;;;;;7.43;2.63;;;17.30;99.20;;;;;;5117886;27;20051;-71
2023/05/20 09:11:13;;;;;;;6.32;2.25;;;17.30;98.80;;;;;;5135953;27;20099;-71
2023/05/20 09:13:39;;;;;;;6.20;2.10;;;17.30;98.50;;;;;;5116952;27;20047;-70
2023/05/20 09:16:05;;;;;;;6.28;2.10;;;17.30;98.50;;;;;;5117026;27;20043;-69
2023/05/20 09:18:31;;;;;;;6.43;2.10;;;17.40;98.10;;;;;;5135314;27;20093;-72
2023/05/20 09:21:03;;;;;;;7.33;1.77;;;17.50;98.30;;;;;;5116946;27;20118;-73
2023/05/20 09:23:30;;;;;;;5.97;2.03;;;17.60;98.40;;;;;;5136192;27;20269;-71
2023/05/20 09:25:55;;;;;;;6.00;1.80;;;17.30;97.20;;;;;;5116884;27;20396;-73
2023/05/20 09:28:23;;;;;;;5.50;2.03;;;17.30;97.50;;;;;;5135277;27;20046;-70
2023/05/20 09:30:50;;;;;;;7.72;2.08;;;17.30;97.80;;;;;;5117944;27;20125;-71
2023/05/20 09:33:16;;;;;;;7.20;1.75;;;17.40;98.10;;;;;;5136169;27;20444;-71
2023/05/20 09:35:42;;;;;;;6.40;1.92;;;17.40;97.60;;;;;;5084373;27;20126;-73
2023/05/20 09:38:10;;;;;;;7.57;2.10;;;17.50;96.80;;;;;;5100744;27;20176;-70
2023/05/20 09:40:39;;;;;;;6.88;1.95;;;17.60;96.40;;;;;;5116624;27;20047;-70
2023/05/20 09:43:06;;;;;;;5.22;2.00;;;17.70;97.30;;;;;;5116416;27;20139;-71
2023/05/20 09:45:32;;;;;;;8.02;2.00;;;17.90;96.50;;;;;;5116974;27;20392;-70
2023/05/20 09:48:00;;;;;;;7.10;1.80;;;18.00;96.70;;;;;;5116558;27;20053;-71
2023/05/20 09:50:27;;;;;;;7.93;1.90;;;18.10;96.60;;;;;;5116623;27;20448;-71
2023/05/20 09:52:54;;;;;;;5.70;2.30;;;18.10;96.50;;;;;;5098951;27;20083;-72
2023/05/20 09:55:21;;;;;;;;;;;18.00;95.50;;;;;;5116850;28;20043;-72
2023/05/20 09:57:47;;;;;;;5.00;1.75;;;18.00;96.20;;;;;;5134606;27;19942;-71
2023/05/20 10:00:16;;;;;;;7.47;1.97;;;18.10;95.30;;;;;;5116374;28;20039;-71
2023/05/20 10:02:45;;;;;;;6.63;2.00;;;18.10;96.10;;;;;;5116610;27;20396;-70
2023/05/20 10:05:36;;;;;;;5.60;2.00;;;18.40;96.30;;;;;;5134453;27;20108;-71
2023/05/20 10:08:11;;;;;;;13.00;2.47;;;18.40;95.60;;;;;;5104379;27;20059;-72
2023/05/20 10:10:48;;;;;;;5.28;1.92;;;18.40;95.70;;;;;;5134280;27;20519;-70
2023/05/20 10:13:22;;;;;;;9.55;2.47;;;18.60;95.50;;;;;;5134688;27;20051;-71
2023/05/20 10:16:14;;;;;;;4.57;1.95;;;18.70;95.30;;;;;;5117068;28;20115;-70
2023/05/20 10:19:10;;;;;;;7.53;1.65;;;18.70;94.50;;;;;;5122550;28;20083;-72
2023/05/20 10:21:36;;;;;;;4.32;1.70;;;18.60;94.20;;;;;;5134375;28;20050;-72
2023/05/20 10:24:09;;;;;;;4.38;1.77;;;18.60;93.90;;;;;;5117006;28;20506;-70
2023/05/20 10:26:39;;;;;;;18.27;2.70;;;18.50;94.20;;;;;;5134266;28;20047;-70
2023/05/20 10:29:18;;;;;;;7.18;2.28;;;18.40;93.80;;;;;;5135238;28;20047;-70
2023/05/20 10:31:49;;;;;;;5.53;1.58;;;18.60;94.40;;;;;;5098993;28;20055;-71
2023/05/20 10:34:16;;;;;;;7.45;2.05;;;18.90;94.30;;;;;;5134255;28;20055;-70
2023/05/20 10:36:46;;;;;;;6.35;1.88;;;19.30;94.10;;;;;;5116020;28;20091;-71
2023/05/20 10:39:24;;;;;;;4.25;1.73;;;19.60;93.90;;;;;;5134719;27;20499;-72
2023/05/20 10:41:49;;;;;;;4.53;1.75;;;19.80;93.30;;;;;;5139444;27;20362;-71
2023/05/20 10:44:15;;;;;;;5.43;1.60;;;19.70;92.60;;;;;;5088163;27;20043;-70
2023/05/20 10:46:41;;;;;;;10.37;1.90;;;19.50;93.40;;;;;;5121095;27;20054;-71
2023/05/20 10:49:19;;;;;;;6.40;1.67;;;19.30;92.90;;;;;;5087126;27;20079;-74
2023/05/20 10:51:46;;;;;;;7.43;1.52;;;19.40;92.60;;;;;;5138008;27;20137;-70
2023/05/20 10:54:13;;;;;;;9.35;1.90;;;19.50;91.80;;;;;;5120836;27;20230;-71
2023/05/20 10:56:49;;;;;;;6.50;1.60;;;19.80;91.40;;;;;;5119633;27;20086;-69
2023/05/20 10:59:15;;;;;;;6.15;1.60;;;20.10;91.20;;;;;;5119671;27;20117;-71
2023/05/20 11:01:42;;;;;;;7.20;1.87;;;20.20;91.20;;;;;;5119728;27;20043;-71
2023/05/20 11:04:12;;;;;;;3.92;1.30;;;20.00;90.60;;;;;;5137509;27;20792;-71
2023/05/20 11:06:37;;;;;;;5.85;1.30;;;19.90;90.10;;;;;;5120389;27;20051;-71
2023/05/20 11:09:06;;;;;;;4.33;1.67;;;19.80;90.90;;;;;;5137800;27;20548;-71
2023/05/20 11:11:32;;;;;;;7.15;2.00;;;19.80;91.10;;;;;;5119304;27;20053;-71
2023/05/20 11:13:59;;;;;;;5.77;1.53;;;19.80;90.40;;;;;;5137771;27;20047;-71
2023/05/20 11:16:28;;;;;;;;;;;19.40;89.50;;;;;;5086949;27;20073;-72
2023/05/20 11:18:53;;;;;;;3.40;1.30;;;19.50;89.20;;;;;;5119517;27;19974;-71
2023/05/20 11:21:19;;;;;;;5.40;1.53;;;19.40;90.00;;;;;;5137516;27;20043;-70
2023/05/20 11:23:45;;;;;;;4.43;1.37;;;19.50;90.10;;;;;;5137654;27;20051;-71
2023/05/20 11:26:11;;;;;;;5.53;1.40;;;19.50;89.90;;;;;;5137084;27;20043;-70
2023/05/20 11:28:37;;;;;;;3.77;1.30;;;19.60;90.00;;;;;;5101931;27;20075;-70
2023/05/20 11:31:03;;;;;;;7.70;1.52;;;19.70;88.30;;;;;;5119054;27;20495;-71
2023/05/20 11:33:29;;;;;;;5.78;1.48;;;20.00;90.00;;;;;;5119078;27;20039;-71
2023/05/20 11:35:56;;;;;;;6.83;1.47;;;20.20;88.80;;;;;;5119047;27;20062;-72
2023/05/20 11:38:22;;;;;;;6.03;1.40;;;20.10;87.30;;;;;;5119473;27;20054;-71
2023/05/20 11:40:54;;;;;;;6.18;0.98;;;20.20;88.40;;;;;;5118687;27;20039;-71
2023/05/20 11:43:21;;;;;;;3.13;1.20;;;20.30;86.80;;;;;;5118964;27;20055;-72
2023/05/20 11:45:55;;;;;;;6.10;1.23;;;20.30;86.20;;;;;;5137346;27;20433;-69
2023/05/20 11:48:21;;;;;;;4.00;1.48;;;20.40;86.40;;;;;;5118652;27;20046;-70
2023/05/20 11:50:47;;;;;;;4.17;1.30;;;20.30;84.70;;;;;;5137285;27;20039;-71
2023/05/20 11:53:18;;;;;;;6.55;1.50;;;20.30;86.00;;;;;;5125628;27;20115;-71
2023/05/20 11:55:48;;;;;;;4.45;1.30;;;20.20;85.70;;;;;;5123207;27;20489;-71
2023/05/20 11:58:22;;;;;;;3.95;1.48;;;20.20;85.80;;;;;;5119355;27;20046;-72
2023/05/20 12:00:48;;;;;;;7.57;1.13;;;20.10;85.50;;;;;;5136688;27;20118;-71
2023/05/20 12:03:15;;;;;;;4.70;1.10;;;20.20;86.00;;;;;;5136820;27;20493;-71
2023/05/20 12:05:41;;;;;;;4.97;1.23;;;20.30;86.20;;;;;;5119015;27;20099;-71
2023/05/20 12:08:07;;;;;;;5.07;1.50;;;20.40;85.70;;;;;;5118513;27;20129;-70
2023/05/20 12:10:39;;;;;;;4.90;1.40;;;20.50;85.70;;;;;;5136570;27;20088;-71
2023/05/20 12:13:07;;;;;;;4.10;1.53;;;20.50;85.30;;;;;;5118036;27;20043;-72
2023/05/20 12:15:37;;;;;;;5.32;1.40;;;20.30;84.30;;;;;;5118386;27;20081;-70
2023/05/20 12:18:03;;;;;;;9.40;1.50;;;20.20;85.50;;;;;;5136140;27;20138;-71
2023/05/20 12:20:30;;;;;;;3.88;1.65;;;20.20;85.60;;;;;;5118263;27;20043;-71
2023/05/20 12:22:56;;;;;;;4.75;1.90;;;20.20;85.80;;;;;;5118108;27;20043;-70
2023/05/20 12:25:22;;;;;;;7.43;1.60;;;20.40;85.70;;;;;;5118576;27;20039;-69
2023/05/20 12:27:48;;;;;;;6.80;1.52;;;20.30;84.10;;;;;;5101208;27;20055;-71
2023/05/20 12:30:16;;;;;;;7.53;1.57;;;20.30;85.10;;;;;;5117887;27;20134;-70
2023/05/20 12:32:42;;;;;;;3.88;1.50;;;20.40;85.30;;;;;;5101024;27;20039;-72
2023/05/20 12:35:09;;;;;;;7.95;1.50;;;20.20;83.40;;;;;;5101074;27;20047;-70
2023/05/20 12:37:36;;;;;;;4.68;1.38;;;20.20;83.90;;;;;;5118251;27;20047;-70
2023/05/20 12:40:07;;;;;;;8.52;1.40;;;20.30;84.40;;;;;;5136751;27;20122;-71
2023/05/20 12:42:34;;;;;;;4.85;1.60;;;20.30;83.70;;;;;;5136827;27;20042;-69